TimeEST,TemperatureF,Dew PointF,Humidity,Sea Level PressureIn,VisibilityMPH,Wind Direction,Wind SpeedMPH,Gust SpeedMPH,PrecipitationIn,Events,Conditions,WindDirDegrees,DateUTC
12:15 AM,42.6,28.0,56,29.93,10.0,WNW,13.8,33.4,N/A,,Clear,290,2013-02-06 05:15:00
12:35 AM,42.1,28.9,60,29.93,10.0,WNW,12.7,20.7,N/A,,Clear,290,2013-02-06 05:35:00
12:55 AM,42.1,28.9,60,29.93,10.0,WNW,16.1,25.3,N/A,,Clear,300,2013-02-06 05:55:00
1:15 AM,42.1,29.1,60,29.94,10.0,WNW,15.0,23.0,N/A,,Clear,290,2013-02-06 06:15:00
1:35 AM,42.1,29.3,61,29.94,10.0,WNW,13.8,21.9,N/A,,Scattered Clouds,290,2013-02-06 06:35:00
1:55 AM,41.9,29.3,61,29.94,10.0,WNW,12.7,24.2,N/A,,Clear,290,2013-02-06 06:55:00
2:15 AM,41.2,29.3,63,29.94,10.0,West,11.5,20.7,N/A,,Clear,280,2013-02-06 07:15:00
2:35 AM,40.5,29.3,64,29.94,10.0,West,6.9,-,N/A,,Clear,280,2013-02-06 07:35:00
2:55 AM,40.8,28.4,61,29.94,10.0,WNW,20.7,33.4,N/A,,Clear,300,2013-02-06 07:55:00
3:15 AM,40.5,28.4,62,29.94,10.0,WNW,13.8,29.9,N/A,,Clear,300,2013-02-06 08:15:00
3:35 AM,40.3,27.5,60,29.94,10.0,WNW,16.1,32.2,N/A,,Clear,290,2013-02-06 08:35:00
3:55 AM,39.7,27.3,61,29.95,10.0,WNW,9.2,25.3,N/A,,Clear,300,2013-02-06 08:55:00
4:15 AM,39.0,27.7,64,29.96,10.0,WNW,6.9,-,N/A,,Clear,300,2013-02-06 09:15:00
4:35 AM,38.3,27.9,66,29.97,10.0,Calm,Calm,-,N/A,,Scattered Clouds,0,2013-02-06 09:35:00
5:15 AM,37.2,27.3,67,29.98,10.0,West,4.6,-,N/A,,Mostly Cloudy,270,2013-02-06 10:15:00
5:35 AM,36.9,27.1,68,29.99,10.0,North,3.5,-,N/A,,Scattered Clouds,10,2013-02-06 10:35:00
5:55 AM,36.5,26.2,66,30.00,10.0,West,4.6,-,N/A,,Scattered Clouds,280,2013-02-06 10:55:00
6:15 AM,36.3,25.7,65,30.01,10.0,Calm,Calm,-,N/A,,Scattered Clouds,0,2013-02-06 11:15:00
6:35 AM,36.0,23.2,60,30.02,10.0,West,12.7,20.7,N/A,,Clear,270,2013-02-06 11:35:00
6:55 AM,35.8,22.6,59,30.03,10.0,Calm,Calm,-,N/A,,Clear,0,2013-02-06 11:55:00
7:15 AM,35.6,23.0,60,30.04,10.0,Calm,Calm,-,N/A,,Clear,0,2013-02-06 12:15:00
7:35 AM,34.2,23.2,64,30.05,10.0,Calm,Calm,-,N/A,,Clear,0,2013-02-06 12:35:00
7:55 AM,35.2,22.3,59,30.06,10.0,Calm,Calm,-,N/A,,Clear,0,2013-02-06 12:55:00
8:15 AM,35.6,21.7,57,30.08,10.0,Calm,Calm,-,N/A,,Clear,0,2013-02-06 13:15:00
8:35 AM,36.0,22.3,58,30.08,10.0,East,3.5,-,N/A,,Clear,80,2013-02-06 13:35:00
8:55 AM,36.7,23.2,58,30.09,10.0,West,3.5,-,N/A,,Clear,260,2013-02-06 13:55:00
9:15 AM,36.9,21.9,55,30.11,10.0,West,6.9,-,N/A,,Clear,280,2013-02-06 14:15:00
9:35 AM,37.4,23.0,56,30.11,10.0,West,10.4,-,N/A,,Clear,270,2013-02-06 14:35:00
9:55 AM,37.6,23.2,56,30.11,10.0,West,10.4,-,N/A,,Clear,270,2013-02-06 14:55:00
10:35 AM,39.4,22.8,52,30.12,10.0,NNW,6.9,-,N/A,,Clear,330,2013-02-06 15:35:00
10:55 AM,39.9,21.6,48,30.13,10.0,NNW,8.1,-,N/A,,Clear,340,2013-02-06 15:55:00
11:15 AM,41.5,22.3,46,30.13,10.0,NNW,6.9,-,N/A,,Clear,340,2013-02-06 16:15:00
11:35 AM,42.3,20.3,42,30.13,10.0,West,5.8,-,N/A,,Clear,280,2013-02-06 16:35:00
12:15 PM,43.5,15.8,33,30.13,10.0,Calm,Calm,-,N/A,,Clear,0,2013-02-06 17:15:00
12:35 PM,44.4,16.0,32,30.13,10.0,Calm,Calm,-,N/A,,Clear,0,2013-02-06 17:35:00
12:55 PM,45.0,15.8,31,30.13,10.0,West,8.1,-,N/A,,Clear,280,2013-02-06 17:55:00
1:15 PM,45.3,15.8,31,30.13,10.0,West,9.2,-,N/A,,Clear,270,2013-02-06 18:15:00
1:35 PM,45.7,15.1,29,30.13,10.0,West,9.2,-,N/A,,Clear,270,2013-02-06 18:35:00
1:55 PM,46.6,13.8,27,30.13,10.0,West,10.4,-,N/A,,Clear,260,2013-02-06 18:55:00
2:15 PM,46.9,13.5,26,30.13,10.0,West,9.2,16.1,N/A,,Clear,280,2013-02-06 19:15:00
2:55 PM,47.5,13.8,26,30.12,10.0,WNW,9.2,18.4,N/A,,Clear,300,2013-02-06 19:55:00
3:15 PM,47.5,13.1,25,30.12,10.0,West,12.7,16.1,N/A,,Clear,270,2013-02-06 20:15:00
3:35 PM,47.7,12.9,25,30.13,10.0,WNW,6.9,-,N/A,,Clear,290,2013-02-06 20:35:00
3:55 PM,48.2,12.6,24,30.13,10.0,WNW,8.1,-,N/A,,Clear,290,2013-02-06 20:55:00
4:35 PM,47.3,11.1,23,30.14,10.0,West,10.4,-,N/A,,Clear,280,2013-02-06 21:35:00
4:55 PM,47.3,11.7,24,30.14,10.0,West,8.1,-,N/A,,Clear,280,2013-02-06 21:55:00
5:15 PM,46.9,12.0,24,30.15,10.0,WSW,4.6,-,N/A,,Clear,250,2013-02-06 22:15:00
5:35 PM,45.9,11.7,25,30.15,10.0,WNW,4.6,-,N/A,,Clear,300,2013-02-06 22:35:00
5:55 PM,45.3,10.6,24,30.16,10.0,Calm,Calm,-,N/A,,Clear,0,2013-02-06 22:55:00
6:15 PM,44.2,10.2,25,30.16,10.0,West,3.5,-,N/A,,Clear,270,2013-02-06 23:15:00
6:35 PM,43.5,9.0,24,30.17,10.0,West,6.9,-,N/A,,Clear,280,2013-02-06 23:35:00
6:55 PM,43.3,9.5,25,30.17,10.0,WNW,5.8,-,N/A,,Clear,300,2013-02-06 23:55:00
7:15 PM,43.2,11.5,28,30.17,10.0,WNW,5.8,-,N/A,,Clear,300,2013-02-07 00:15:00
7:35 PM,42.1,12.7,30,30.19,10.0,Calm,Calm,-,N/A,,Clear,0,2013-02-07 00:35:00
8:15 PM,41.0,15.8,36,30.17,10.0,Calm,Calm,-,N/A,,Clear,0,2013-02-07 01:15:00
8:55 PM,39.6,17.4,41,30.17,10.0,NNW,3.5,-,N/A,,Clear,340,2013-02-07 01:55:00
9:15 PM,39.6,17.6,41,30.17,10.0,Calm,Calm,-,N/A,,Clear,0,2013-02-07 02:15:00
9:35 PM,34.9,19.4,53,30.17,10.0,Calm,Calm,-,N/A,,Clear,0,2013-02-07 02:35:00
9:55 PM,35.8,18.7,50,30.17,10.0,Calm,Calm,-,N/A,,Clear,0,2013-02-07 02:55:00
10:15 PM,33.4,18.5,54,30.18,10.0,South,3.5,-,N/A,,Clear,190,2013-02-07 03:15:00
10:35 PM,35.6,18.0,49,30.21,10.0,West,3.5,-,N/A,,Clear,260,2013-02-07 03:35:00
10:55 PM,36.5,16.9,45,30.21,10.0,Calm,Calm,-,N/A,,Clear,0,2013-02-07 03:55:00
11:15 PM,36.7,16.3,44,30.22,10.0,Calm,Calm,-,N/A,,Clear,0,2013-02-07 04:15:00
11:55 PM,34.9,17.6,49,30.20,10.0,Calm,Calm,-,N/A,,Clear,0,2013-02-07 04:55:00